S 386 Casilo — OZZP — position and weather

sailwx.info

Track history (hours):
 
Tides and Currents Weather Stations Pressure Air Temp Water Temp Dewpoint Dewpoint Depression Visibility Wind Speed Wind Dir Waves Ship Positions

S 386 Casilo

Last reported at 2015-Sep-05 15:26 UTC. Time now 2015-Sep-05 16:21 UTC.
Position N 58°36' E 010°24'.

Length 24 m.

Type: Fishing. MMSI: 219948000.

Date/timePositionNaut miles runAvg speedWind from/ knotsBaromVisibWave heightAir tempDewpointWater temp
2015-Sep-05 15:26N 58°36' E 010°24'2 2.3
2015-Sep-05 14:33N 58°34' E 010°26'14 6.8
2015-Sep-05 12:31N 58°46' E 010°12'1 0.8
2015-Sep-05 11:33N 58°46' E 010°13'2 1.9
2015-Sep-05 10:33N 58°45' E 010°15'2 1.9
2015-Sep-05 09:33N 58°43' E 010°16'2 2.0
2015-Sep-05 08:33N 58°41' E 010°18'2 2.0
2015-Sep-05 07:33N 58°39' E 010°20'2 2.0
2015-Sep-05 06:29N 58°38' E 010°22'3 1.2
2015-Sep-05 04:04N 58°40' E 010°23'3 6.3
2015-Sep-05 03:34N 58°44' E 010°22'1 1.2
2015-Sep-05 02:33N 58°43' E 010°23'2 1.9
2015-Sep-05 01:33N 58°41' E 010°25'2 2.0
2015-Sep-05 00:33N 58°39' E 010°26'2 2.0
2015-Sep-04 23:33N 58°37' E 010°28'2 2.1
2015-Sep-04 22:33N 58°35' E 010°30'2 2.1
2015-Sep-04 21:33N 58°33' E 010°32'2 2.1
2015-Sep-04 20:34N 58°32' E 010°33'3 2.8
2015-Sep-04 19:33N 58°29' E 010°35'1010.1
2015-Sep-04 18:33N 58°19' E 010°36'1010.0
2015-Sep-04 17:34N 58°09' E 010°38'9 9.4
2015-Sep-04 16:34N 57°60' E 010°39'8 0.3
2015-Sep-03 10:33N 57°56' E 010°53'8 7.8
2015-Sep-03 09:33N 58°03' E 010°59'7 7.5
2015-Sep-03 08:33N 58°10' E 011°04'7 6.8
2015-Sep-03 07:33N 58°16' E 011°10'6 5.7
2015-Sep-03 06:33N 58°21' E 011°14'3 3.2
2015-Sep-03 05:33N 58°22' E 011°08'7 7.4
2015-Sep-03 04:34N 58°27' E 010°58'8 7.9
2015-Sep-03 03:33N 58°33' E 010°46'8 8.3
2015-Sep-03 02:34N 58°38' E 010°34'8 8.1
2015-Sep-03 01:32N 58°43' E 010°21'1 1.4
2015-Sep-03 00:33N 58°42' E 010°23'2 1.9
2015-Sep-02 23:33N 58°40' E 010°24'2 2.0
2015-Sep-02 22:33N 58°38' E 010°25'2 2.0
2015-Sep-02 21:33N 58°36' E 010°27'2 2.0
2015-Sep-02 20:32N 58°35' E 010°29'2 2.3
2015-Sep-02 19:33N 58°33' E 010°31'9 6.5
2015-Sep-02 18:12N 58°40' E 010°22'3 4.6
2015-Sep-02 17:34N 58°42' E 010°18'1 1.4
2015-Sep-02 16:33N 58°41' E 010°20'2 2.0
2015-Sep-02 15:33N 58°40' E 010°22'2 2.1
2015-Sep-02 14:33N 58°38' E 010°25'2 2.1
2015-Sep-02 13:29N 58°36' E 010°27'2 2.0
2015-Sep-02 12:33N 58°34' E 010°28'2 2.1
2015-Sep-02 11:23N 58°32' E 010°30'7 5.5
2015-Sep-02 10:06N 58°38' E 010°23'5 7.4
2015-Sep-02 09:28N 58°42' E 010°18'0 0.5
2015-Sep-02 08:34N 58°42' E 010°19'2 1.9
2015-Sep-02 07:33N 58°40' E 010°21'2 1.9
2015-Sep-02 06:33N 58°39' E 010°24'2 2.0
2015-Sep-02 05:33N 58°37' E 010°26'2 2.0
2015-Sep-02 04:32N 58°36' E 010°28'2 2.1
2015-Sep-02 03:32N 58°34' E 010°29'3 3.6
2015-Sep-02 02:33N 58°31' E 010°33'9 9.1
2015-Sep-02 01:33N 58°26' E 010°48'10 9.9
2015-Sep-02 00:33N 58°21' E 011°04'5 4.9
2015-Sep-01 23:33N 58°21' E 011°14'0 0.0
2015-Sep-01 22:33N 58°21' E 011°14'0 0.0
2015-Sep-01 21:33N 58°21' E 011°14'0 0.0
2015-Sep-01 20:33N 58°21' E 011°14'6 5.9
2015-Sep-01 19:33N 58°17' E 011°06'8 8.4
2015-Sep-01 18:33N 58°12' E 010°53'8 8.3
2015-Sep-01 17:34N 58°08' E 010°39'3 2.9
2015-Sep-01 16:33N 58°07' E 010°34'2 1.6
2015-Sep-01 15:33N 58°06' E 010°37'2 1.9
2015-Sep-01 14:33N 58°04' E 010°39'2 1.8
2015-Sep-01 13:34N 58°03' E 010°41'1 1.4
2015-Sep-01 12:33N 58°02' E 010°43'1 0.7
2015-Sep-01 11:33N 58°02' E 010°45'1 1.1
2015-Sep-01 10:33N 58°02' E 010°43'2 1.9
2015-Sep-01 09:33N 58°03' E 010°40'2 1.8
2015-Sep-01 08:33N 58°05' E 010°38'2 1.8
2015-Sep-01 07:27N 58°06' E 010°35'2 1.8
2015-Sep-01 06:30N 58°07' E 010°32'2 1.7
2015-Sep-01 05:33N 58°08' E 010°30'2 1.7
2015-Sep-01 04:33N 58°09' E 010°27'2 1.7
2015-Sep-01 03:32N 58°09' E 010°24'2 1.6
2015-Sep-01 02:33N 58°09' E 010°21'2 1.7
2015-Sep-01 01:33N 58°09' E 010°17'2 1.7
2015-Sep-01 00:30N 58°09' E 010°14'3 1.3
2015-Aug-31 22:29N 58°09' E 010°09'4 1.4
2015-Aug-31 19:31N 58°09' E 010°17'2 1.8
2015-Aug-31 18:31N 58°09' E 010°20'2 1.8
2015-Aug-31 17:33N 58°09' E 010°24'2 1.8
2015-Aug-31 16:33N 58°09' E 010°27'2 1.8
2015-Aug-31 15:33N 58°08' E 010°30'2 1.8
2015-Aug-31 14:33N 58°07' E 010°33'2 1.8
2015-Aug-31 13:33N 58°06' E 010°35'2 1.9
2015-Aug-31 12:33N 58°04' E 010°38'2 1.8
2015-Aug-31 11:33N 58°03' E 010°40'2 1.8
2015-Aug-31 10:33N 58°02' E 010°43'1 1.0
2015-Aug-31 09:32N 58°02' E 010°45'1 0.7
2015-Aug-31 08:33N 58°01' E 010°44'2 1.5
2015-Aug-31 07:33N 58°02' E 010°41'2 1.9
2015-Aug-31 06:32N 58°04' E 010°39'2 1.8
2015-Aug-31 05:33N 58°05' E 010°37'2 1.8
2015-Aug-31 04:33N 58°06' E 010°34'2 1.9
2015-Aug-31 03:31N 58°07' E 010°31'4 1.8
2015-Aug-31 01:29N 58°09' E 010°25'2 1.7
2015-Aug-31 00:12N 58°09' E 010°20'1 1.8
2015-Aug-30 23:33N 58°09' E 010°18'2 1.8
2015-Aug-30 22:33N 58°09' E 010°15'2 1.8
2015-Aug-30 21:32N 58°08' E 010°11'5 4.9
2015-Aug-30 20:32N 58°04' E 010°15'8 8.6
2015-Aug-30 19:34N 57°58' E 010°26'9 8.7
2015-Aug-30 18:32N 57°50' E 010°36'5 0.8
2015-Aug-30 12:33N 57°53' E 010°43'9 9.0
2015-Aug-30 11:33N 58°02' E 010°44'4 3.6
2015-Aug-30 10:33N 58°06' E 010°44'2 1.7
2015-Aug-30 09:33N 58°07' E 010°42'2 1.8
2015-Aug-30 08:33N 58°09' E 010°41'2 1.8
2015-Aug-30 07:33N 58°10' E 010°39'2 1.8
2015-Aug-30 06:33N 58°11' E 010°36'2 1.8
2015-Aug-30 05:33N 58°12' E 010°34'2 1.7
2015-Aug-30 04:33N 58°13' E 010°31'2 1.8
2015-Aug-30 03:33N 58°14' E 010°28'2 1.9
2015-Aug-30 02:33N 58°14' E 010°24'2 1.9
2015-Aug-30 01:33N 58°14' E 010°20'2 1.8
2015-Aug-30 00:33N 58°14' E 010°17'2 1.9
2015-Aug-29 23:33N 58°13' E 010°14'2 1.9
2015-Aug-29 22:33N 58°12' E 010°11'4 3.2
2015-Aug-29 21:24N 58°09' E 010°16'7 8.1
2015-Aug-29 20:33N 58°09' E 010°29'7 7.1
2015-Aug-29 19:33N 58°08' E 010°43'1 0.9
2015-Aug-29 18:33N 58°09' E 010°42'2 1.8
2015-Aug-29 17:33N 58°11' E 010°40'2 1.9
2015-Aug-29 16:33N 58°12' E 010°37'2 1.9
2015-Aug-29 15:33N 58°12' E 010°34'2 1.8
2015-Aug-29 14:33N 58°13' E 010°30'2 1.8
2015-Aug-29 13:33N 58°13' E 010°27'2 1.9
2015-Aug-29 12:33N 58°13' E 010°23'2 1.9
2015-Aug-29 11:33N 58°13' E 010°20'2 1.8
2015-Aug-29 10:33N 58°13' E 010°16'2 1.8
2015-Aug-29 09:33N 58°12' E 010°13'2 1.9
2015-Aug-29 08:33N 58°11' E 010°10'8 2.6
2015-Aug-29 05:33N 58°09' E 010°24'7 7.4
2015-Aug-29 04:33N 58°06' E 010°37'6 5.6
2015-Aug-29 03:33N 58°03' E 010°46'1 1.0
2015-Aug-29 02:33N 58°03' E 010°45'2 1.9
2015-Aug-29 01:33N 58°05' E 010°43'2 1.8
2015-Aug-29 00:33N 58°07' E 010°42'2 1.7
2015-Aug-28 23:33N 58°08' E 010°40'2 1.8
2015-Aug-28 22:33N 58°10' E 010°38'2 1.8
2015-Aug-28 21:33N 58°11' E 010°36'2 2.0
2015-Aug-28 20:32N 58°12' E 010°33'2 2.0
2015-Aug-28 19:33N 58°13' E 010°29'2 2.0
2015-Aug-28 18:33N 58°13' E 010°25'2 2.0
2015-Aug-28 17:33N 58°13' E 010°22'2 2.1
2015-Aug-28 16:33N 58°13' E 010°18'2 2.1
2015-Aug-28 15:33N 58°12' E 010°14'2 2.0
2015-Aug-28 14:32N 58°11' E 010°10'7 5.2
2015-Aug-28 13:09N 58°05' E 010°17'9 8.2
2015-Aug-28 12:05N 57°58' E 010°28'4 7.7
2015-Aug-28 11:33N 57°55' E 010°33'6 0.2
2015-Aug-27 08:34N 57°56' E 010°44'8 8.1
2015-Aug-27 07:34N 58°04' E 010°47'1 1.1
2015-Aug-27 06:34N 58°05' E 010°45'2 2.0
2015-Aug-27 05:33N 58°07' E 010°43'2 2.0
2015-Aug-27 04:34N 58°08' E 010°41'2 1.8
2015-Aug-27 03:34N 58°10' E 010°39'2 1.9
2015-Aug-27 02:33N 58°11' E 010°36'2 1.9
2015-Aug-27 01:34N 58°12' E 010°33'2 2.0
2015-Aug-27 00:22N 58°13' E 010°29'2 1.9
2015-Aug-26 23:21N 58°13' E 010°25'2 1.9
2015-Aug-26 22:12N 58°13' E 010°21'1 1.9
2015-Aug-26 21:33N 58°13' E 010°19'2 1.9
2015-Aug-26 20:32N 58°12' E 010°15'2 2.0
2015-Aug-26 19:29N 58°12' E 010°12'1 0.8
2015-Aug-26 18:28N 58°11' E 010°12'2 1.0
2015-Aug-26 16:28N 58°12' E 010°15'2 1.7
2015-Aug-26 15:33N 58°12' E 010°18'  
Track history (hours):
 
Tides and Currents Weather Stations Pressure Air Temp Water Temp Dewpoint Dewpoint Depression Visibility Wind Speed Wind Dir Waves Ship Positions

S 386 Casilo

Last reported at 2015-Sep-05 15:26 UTC. Time now 2015-Sep-05 16:21 UTC.
Position N 58°36' E 010°24'.

Length 24 m.

Type: Fishing. MMSI: 219948000.

Date/timePositionNaut miles runAvg speedWind from/ knotsBaromVisibWave heightAir tempDewpointWater temp
2015-Sep-05 15:26N 58°36' E 010°24'2 2.3
2015-Sep-05 14:33N 58°34' E 010°26'14 6.8
2015-Sep-05 12:31N 58°46' E 010°12'1 0.8
2015-Sep-05 11:33N 58°46' E 010°13'2 1.9
2015-Sep-05 10:33N 58°45' E 010°15'2 1.9
2015-Sep-05 09:33N 58°43' E 010°16'2 2.0
2015-Sep-05 08:33N 58°41' E 010°18'2 2.0
2015-Sep-05 07:33N 58°39' E 010°20'2 2.0
2015-Sep-05 06:29N 58°38' E 010°22'3 1.2
2015-Sep-05 04:04N 58°40' E 010°23'3 6.3
2015-Sep-05 03:34N 58°44' E 010°22'1 1.2
2015-Sep-05 02:33N 58°43' E 010°23'2 1.9
2015-Sep-05 01:33N 58°41' E 010°25'2 2.0
2015-Sep-05 00:33N 58°39' E 010°26'2 2.0
2015-Sep-04 23:33N 58°37' E 010°28'2 2.1
2015-Sep-04 22:33N 58°35' E 010°30'2 2.1
2015-Sep-04 21:33N 58°33' E 010°32'2 2.1
2015-Sep-04 20:34N 58°32' E 010°33'3 2.8
2015-Sep-04 19:33N 58°29' E 010°35'1010.1
2015-Sep-04 18:33N 58°19' E 010°36'1010.0
2015-Sep-04 17:34N 58°09' E 010°38'9 9.4
2015-Sep-04 16:34N 57°60' E 010°39'8 0.3
2015-Sep-03 10:33N 57°56' E 010°53'8 7.8
2015-Sep-03 09:33N 58°03' E 010°59'7 7.5
2015-Sep-03 08:33N 58°10' E 011°04'7 6.8
2015-Sep-03 07:33N 58°16' E 011°10'6 5.7
2015-Sep-03 06:33N 58°21' E 011°14'3 3.2
2015-Sep-03 05:33N 58°22' E 011°08'7 7.4
2015-Sep-03 04:34N 58°27' E 010°58'8 7.9
2015-Sep-03 03:33N 58°33' E 010°46'8 8.3
2015-Sep-03 02:34N 58°38' E 010°34'8 8.1
2015-Sep-03 01:32N 58°43' E 010°21'1 1.4
2015-Sep-03 00:33N 58°42' E 010°23'2 1.9
2015-Sep-02 23:33N 58°40' E 010°24'2 2.0
2015-Sep-02 22:33N 58°38' E 010°25'2 2.0
2015-Sep-02 21:33N 58°36' E 010°27'2 2.0
2015-Sep-02 20:32N 58°35' E 010°29'2 2.3
2015-Sep-02 19:33N 58°33' E 010°31'9 6.5
2015-Sep-02 18:12N 58°40' E 010°22'3 4.6
2015-Sep-02 17:34N 58°42' E 010°18'1 1.4
2015-Sep-02 16:33N 58°41' E 010°20'2 2.0
2015-Sep-02 15:33N 58°40' E 010°22'2 2.1
2015-Sep-02 14:33N 58°38' E 010°25'2 2.1
2015-Sep-02 13:29N 58°36' E 010°27'2 2.0
2015-Sep-02 12:33N 58°34' E 010°28'2 2.1
2015-Sep-02 11:23N 58°32' E 010°30'7 5.5
2015-Sep-02 10:06N 58°38' E 010°23'5 7.4
2015-Sep-02 09:28N 58°42' E 010°18'0 0.5
2015-Sep-02 08:34N 58°42' E 010°19'2 1.9
2015-Sep-02 07:33N 58°40' E 010°21'2 1.9
2015-Sep-02 06:33N 58°39' E 010°24'2 2.0
2015-Sep-02 05:33N 58°37' E 010°26'2 2.0
2015-Sep-02 04:32N 58°36' E 010°28'2 2.1
2015-Sep-02 03:32N 58°34' E 010°29'3 3.6
2015-Sep-02 02:33N 58°31' E 010°33'9 9.1
2015-Sep-02 01:33N 58°26' E 010°48'10 9.9
2015-Sep-02 00:33N 58°21' E 011°04'5 4.9
2015-Sep-01 23:33N 58°21' E 011°14'0 0.0
2015-Sep-01 22:33N 58°21' E 011°14'0 0.0
2015-Sep-01 21:33N 58°21' E 011°14'0 0.0
2015-Sep-01 20:33N 58°21' E 011°14'6 5.9
2015-Sep-01 19:33N 58°17' E 011°06'8 8.4
2015-Sep-01 18:33N 58°12' E 010°53'8 8.3
2015-Sep-01 17:34N 58°08' E 010°39'3 2.9
2015-Sep-01 16:33N 58°07' E 010°34'2 1.6
2015-Sep-01 15:33N 58°06' E 010°37'2 1.9
2015-Sep-01 14:33N 58°04' E 010°39'2 1.8
2015-Sep-01 13:34N 58°03' E 010°41'1 1.4
2015-Sep-01 12:33N 58°02' E 010°43'1 0.7
2015-Sep-01 11:33N 58°02' E 010°45'1 1.1
2015-Sep-01 10:33N 58°02' E 010°43'2 1.9
2015-Sep-01 09:33N 58°03' E 010°40'2 1.8
2015-Sep-01 08:33N 58°05' E 010°38'2 1.8
2015-Sep-01 07:27N 58°06' E 010°35'2 1.8
2015-Sep-01 06:30N 58°07' E 010°32'2 1.7
2015-Sep-01 05:33N 58°08' E 010°30'2 1.7
2015-Sep-01 04:33N 58°09' E 010°27'2 1.7
2015-Sep-01 03:32N 58°09' E 010°24'2 1.6
2015-Sep-01 02:33N 58°09' E 010°21'2 1.7
2015-Sep-01 01:33N 58°09' E 010°17'2 1.7
2015-Sep-01 00:30N 58°09' E 010°14'3 1.3
2015-Aug-31 22:29N 58°09' E 010°09'4 1.4
2015-Aug-31 19:31N 58°09' E 010°17'2 1.8
2015-Aug-31 18:31N 58°09' E 010°20'2 1.8
2015-Aug-31 17:33N 58°09' E 010°24'2 1.8
2015-Aug-31 16:33N 58°09' E 010°27'2 1.8
2015-Aug-31 15:33N 58°08' E 010°30'2 1.8
2015-Aug-31 14:33N 58°07' E 010°33'2 1.8
2015-Aug-31 13:33N 58°06' E 010°35'2 1.9
2015-Aug-31 12:33N 58°04' E 010°38'2 1.8
2015-Aug-31 11:33N 58°03' E 010°40'2 1.8
2015-Aug-31 10:33N 58°02' E 010°43'1 1.0
2015-Aug-31 09:32N 58°02' E 010°45'1 0.7
2015-Aug-31 08:33N 58°01' E 010°44'2 1.5
2015-Aug-31 07:33N 58°02' E 010°41'2 1.9
2015-Aug-31 06:32N 58°04' E 010°39'2 1.8
2015-Aug-31 05:33N 58°05' E 010°37'2 1.8
2015-Aug-31 04:33N 58°06' E 010°34'2 1.9
2015-Aug-31 03:31N 58°07' E 010°31'4 1.8
2015-Aug-31 01:29N 58°09' E 010°25'2 1.7
2015-Aug-31 00:12N 58°09' E 010°20'1 1.8
2015-Aug-30 23:33N 58°09' E 010°18'2 1.8
2015-Aug-30 22:33N 58°09' E 010°15'2 1.8
2015-Aug-30 21:32N 58°08' E 010°11'5 4.9
2015-Aug-30 20:32N 58°04' E 010°15'8 8.6
2015-Aug-30 19:34N 57°58' E 010°26'9 8.7
2015-Aug-30 18:32N 57°50' E 010°36'5 0.8
2015-Aug-30 12:33N 57°53' E 010°43'9 9.0
2015-Aug-30 11:33N 58°02' E 010°44'4 3.6
2015-Aug-30 10:33N 58°06' E 010°44'2 1.7
2015-Aug-30 09:33N 58°07' E 010°42'2 1.8
2015-Aug-30 08:33N 58°09' E 010°41'2 1.8
2015-Aug-30 07:33N 58°10' E 010°39'2 1.8
2015-Aug-30 06:33N 58°11' E 010°36'2 1.8
2015-Aug-30 05:33N 58°12' E 010°34'2 1.7
2015-Aug-30 04:33N 58°13' E 010°31'2 1.8
2015-Aug-30 03:33N 58°14' E 010°28'2 1.9
2015-Aug-30 02:33N 58°14' E 010°24'2 1.9
2015-Aug-30 01:33N 58°14' E 010°20'2 1.8
2015-Aug-30 00:33N 58°14' E 010°17'2 1.9
2015-Aug-29 23:33N 58°13' E 010°14'2 1.9
2015-Aug-29 22:33N 58°12' E 010°11'4 3.2
2015-Aug-29 21:24N 58°09' E 010°16'7 8.1
2015-Aug-29 20:33N 58°09' E 010°29'7 7.1
2015-Aug-29 19:33N 58°08' E 010°43'1 0.9
2015-Aug-29 18:33N 58°09' E 010°42'2 1.8
2015-Aug-29 17:33N 58°11' E 010°40'2 1.9
2015-Aug-29 16:33N 58°12' E 010°37'2 1.9
2015-Aug-29 15:33N 58°12' E 010°34'2 1.8
2015-Aug-29 14:33N 58°13' E 010°30'2 1.8
2015-Aug-29 13:33N 58°13' E 010°27'2 1.9
2015-Aug-29 12:33N 58°13' E 010°23'2 1.9
2015-Aug-29 11:33N 58°13' E 010°20'2 1.8
2015-Aug-29 10:33N 58°13' E 010°16'2 1.8
2015-Aug-29 09:33N 58°12' E 010°13'2 1.9
2015-Aug-29 08:33N 58°11' E 010°10'8 2.6
2015-Aug-29 05:33N 58°09' E 010°24'7 7.4
2015-Aug-29 04:33N 58°06' E 010°37'6 5.6
2015-Aug-29 03:33N 58°03' E 010°46'1 1.0
2015-Aug-29 02:33N 58°03' E 010°45'2 1.9
2015-Aug-29 01:33N 58°05' E 010°43'2 1.8
2015-Aug-29 00:33N 58°07' E 010°42'2 1.7
2015-Aug-28 23:33N 58°08' E 010°40'2 1.8
2015-Aug-28 22:33N 58°10' E 010°38'2 1.8
2015-Aug-28 21:33N 58°11' E 010°36'2 2.0
2015-Aug-28 20:32N 58°12' E 010°33'2 2.0
2015-Aug-28 19:33N 58°13' E 010°29'2 2.0
2015-Aug-28 18:33N 58°13' E 010°25'2 2.0
2015-Aug-28 17:33N 58°13' E 010°22'2 2.1
2015-Aug-28 16:33N 58°13' E 010°18'2 2.1
2015-Aug-28 15:33N 58°12' E 010°14'2 2.0
2015-Aug-28 14:32N 58°11' E 010°10'7 5.2
2015-Aug-28 13:09N 58°05' E 010°17'9 8.2
2015-Aug-28 12:05N 57°58' E 010°28'4 7.7
2015-Aug-28 11:33N 57°55' E 010°33'6 0.2
2015-Aug-27 08:34N 57°56' E 010°44'8 8.1
2015-Aug-27 07:34N 58°04' E 010°47'1 1.1
2015-Aug-27 06:34N 58°05' E 010°45'2 2.0
2015-Aug-27 05:33N 58°07' E 010°43'2 2.0
2015-Aug-27 04:34N 58°08' E 010°41'2 1.8
2015-Aug-27 03:34N 58°10' E 010°39'2 1.9
2015-Aug-27 02:33N 58°11' E 010°36'2 1.9
2015-Aug-27 01:34N 58°12' E 010°33'2 2.0
2015-Aug-27 00:22N 58°13' E 010°29'2 1.9
2015-Aug-26 23:21N 58°13' E 010°25'2 1.9
2015-Aug-26 22:12N 58°13' E 010°21'1 1.9
2015-Aug-26 21:33N 58°13' E 010°19'2 1.9
2015-Aug-26 20:32N 58°12' E 010°15'2 2.0
2015-Aug-26 19:29N 58°12' E 010°12'1 0.8
2015-Aug-26 18:28N 58°11' E 010°12'2 1.0
2015-Aug-26 16:28N 58°12' E 010°15'2 1.7
2015-Aug-26 15:33N 58°12' E 010°18'  

Dump ship's entire track history